Terminal Aerodrome Forecast
Issued by NWS Cleveland, OH

Home | Current Version | Previous Version | Graphics & Text | Print | Product List | Glossary On
Versions: 1 2 3 4 5 6 7 8 9 10 11 12 13 14 15 16 17 18 19 20 21 22 23 24 25 26
000
FTUS41 KCLE 251300 AAB
TAFTOL
TAF AMD
KTOL 251312Z 2513/2612 16010KT 4SM BR BKN006 OVC018 WS020/18045KT
      TEMPO 2513/2515 2SM BR SCT006 OVC018
     FM251500 20010G20KT P6SM BKN015 OVC045
      TEMPO 2515/2518 BKN008
     FM251800 25018G28KT P6SM BKN020
     FM252100 25014G20KT P6SM SCT020 BKN250
     FM260000 24005KT P6SM BKN100 OVC250
     FM260900 33005KT P6SM VCSH BKN040 OVC100=

USA.gov is the U.S. government's official web portal to all federal, state and local government web resources and services.